createdAt,value
2018-08-06T00:00:25.257Z,21.70
2018-08-06T00:02:53.847Z,21.70
2018-08-06T00:05:22.444Z,21.70
2018-08-06T00:07:50.992Z,21.70
2018-08-06T00:10:20.898Z,21.60
2018-08-06T00:12:56.083Z,21.60
2018-08-06T00:15:24.631Z,21.50
2018-08-06T00:17:53.103Z,21.50
2018-08-06T00:20:21.712Z,21.50
2018-08-06T00:22:50.248Z,21.50
2018-08-06T00:25:19.136Z,21.40
2018-08-06T00:27:47.743Z,21.30
2018-08-06T00:30:18.982Z,21.30
2018-08-06T00:32:48.298Z,21.30
2018-08-06T00:35:17.236Z,21.30
2018-08-06T00:37:45.763Z,21.20
2018-08-06T00:40:15.928Z,21.10
2018-08-06T00:42:45.157Z,21.10
2018-08-06T00:45:16.659Z,21.00
2018-08-06T00:47:45.757Z,20.90
2018-08-06T00:50:14.474Z,20.90
2018-08-06T00:52:43.008Z,20.90
2018-08-06T00:55:14.885Z,20.80
2018-08-06T01:00:19.867Z,20.70
2018-08-06T01:02:48.551Z,20.60
2018-08-06T01:05:17.527Z,20.60
2018-08-06T01:07:46.318Z,20.50
2018-08-06T01:10:16.043Z,20.50
2018-08-06T01:12:44.521Z,20.50
2018-08-06T01:15:17.864Z,20.50
2018-08-06T01:17:46.307Z,20.40
2018-08-06T01:22:44.137Z,20.30
2018-08-06T01:25:13.353Z,20.30
2018-08-06T01:27:41.851Z,20.40
2018-08-06T01:30:12.126Z,20.40
2018-08-06T01:32:40.624Z,20.50
2018-08-06T01:35:10.203Z,20.50
2018-08-06T01:37:38.904Z,20.50
2018-08-06T01:40:10.229Z,20.40
2018-08-06T01:42:38.757Z,20.40
2018-08-06T01:45:07.660Z,20.30
2018-08-06T01:47:36.924Z,20.30
2018-08-06T01:50:05.907Z,20.30
2018-08-06T01:52:34.349Z,20.30
2018-08-06T01:55:02.968Z,20.30
2018-08-06T01:57:31.515Z,20.30
2018-08-06T02:00:00.055Z,20.20
2018-08-06T02:02:28.652Z,20.20
2018-08-06T02:04:57.153Z,20.20
2018-08-06T02:07:25.627Z,20.20
2018-08-06T02:09:54.167Z,20.30
2018-08-06T02:12:22.594Z,20.30
2018-08-06T02:14:51.084Z,20.30
2018-08-06T02:17:20.160Z,20.30
2018-08-06T02:19:48.647Z,20.30
2018-08-06T02:22:17.110Z,20.20
2018-08-06T02:24:45.560Z,20.30
2018-08-06T02:27:13.987Z,20.30
2018-08-06T02:29:42.512Z,20.30
2018-08-06T02:34:39.164Z,20.30
2018-08-06T02:37:07.704Z,20.20
2018-08-06T02:39:36.188Z,20.10
2018-08-06T02:42:04.731Z,20.10
2018-08-06T02:47:01.438Z,20.20
2018-08-06T02:49:29.957Z,20.20
2018-08-06T02:51:58.398Z,20.10
2018-08-06T02:54:26.840Z,20.10
2018-08-06T02:56:56.100Z,20.10
2018-08-06T02:59:24.704Z,20.20
2018-08-06T03:01:53.192Z,20.10
2018-08-06T03:04:21.638Z,20.20
2018-08-06T03:06:50.062Z,20.10
2018-08-06T03:09:18.592Z,20.10
2018-08-06T03:11:47.044Z,20.20
2018-08-06T03:14:15.514Z,20.30
2018-08-06T03:16:43.955Z,20.30
2018-08-06T03:19:12.442Z,20.30
2018-08-06T03:21:40.925Z,20.30
2018-08-06T03:24:09.402Z,20.20
2018-08-06T03:26:38.502Z,20.30
2018-08-06T03:29:07.008Z,20.30
2018-08-06T03:31:35.636Z,20.40
2018-08-06T03:34:04.127Z,20.40
2018-08-06T03:36:32.629Z,20.40
2018-08-06T03:39:01.073Z,20.30
2018-08-06T03:41:29.526Z,20.40
2018-08-06T03:43:58.010Z,20.30
2018-08-06T03:48:55.100Z,20.00
2018-08-06T03:51:24.386Z,20.00
2018-08-06T03:53:52.964Z,19.90
2018-08-06T03:58:50.932Z,19.90
2018-08-06T04:01:19.430Z,19.90
2018-08-06T04:06:16.738Z,20.00
2018-08-06T04:08:45.224Z,20.00
2018-08-06T04:11:13.743Z,20.20
2018-08-06T04:13:42.696Z,20.30
2018-08-06T04:16:11.184Z,20.30
2018-08-06T04:18:39.660Z,20.50
2018-08-06T04:23:36.381Z,20.50
2018-08-06T04:26:05.247Z,20.50
2018-08-06T04:28:33.876Z,20.40
2018-08-06T04:31:02.391Z,20.40
2018-08-06T04:33:30.868Z,20.40
2018-08-06T04:35:59.368Z,20.40
2018-08-06T04:38:28.035Z,20.50
2018-08-06T04:40:56.461Z,20.50
2018-08-06T04:43:24.933Z,20.60
2018-08-06T04:45:53.494Z,20.70
2018-08-06T04:48:21.944Z,20.70
2018-08-06T04:50:50.377Z,20.70
2018-08-06T04:53:18.956Z,20.90
2018-08-06T04:55:47.445Z,20.90
2018-08-06T04:58:15.920Z,21.00
2018-08-06T05:00:44.353Z,21.10
2018-08-06T05:03:12.965Z,21.10
2018-08-06T05:05:41.504Z,21.20
2018-08-06T05:08:10.113Z,21.40
2018-08-06T05:10:39.791Z,21.50
2018-08-06T05:13:08.335Z,21.60
2018-08-06T05:15:36.844Z,21.70
2018-08-06T05:18:05.639Z,21.90
2018-08-06T05:20:34.235Z,22.00
2018-08-06T05:23:02.713Z,22.10
2018-08-06T05:25:31.176Z,22.30
2018-08-06T05:27:59.677Z,22.70
2018-08-06T05:30:28.179Z,23.80
2018-08-06T05:32:56.668Z,25.00
2018-08-06T05:35:25.160Z,26.10
2018-08-06T05:40:30.988Z,26.60
2018-08-06T05:42:59.469Z,26.40
2018-08-06T05:45:27.984Z,27.10
2018-08-06T05:47:56.658Z,27.80
2018-08-06T05:50:25.169Z,28.40
2018-08-06T05:52:53.706Z,28.60
2018-08-06T05:55:22.218Z,28.80
2018-08-06T05:57:57.368Z,29.40
2018-08-06T06:00:25.932Z,29.60
2018-08-06T06:02:54.409Z,29.80
2018-08-06T06:05:22.929Z,29.60
2018-08-06T06:07:51.866Z,29.20
2018-08-06T06:10:20.315Z,29.60
2018-08-06T06:12:48.786Z,29.30
2018-08-06T06:15:17.476Z,29.30
2018-08-06T06:17:45.987Z,29.30
2018-08-06T06:20:14.616Z,28.80
2018-08-06T06:22:43.079Z,28.90
2018-08-06T06:25:12.800Z,29.30
2018-08-06T06:30:13.250Z,29.50
2018-08-06T06:32:42.021Z,29.20
2018-08-06T06:37:38.939Z,29.00
2018-08-06T06:40:07.520Z,29.00
2018-08-06T06:42:36.022Z,29.40
2018-08-06T06:45:05.642Z,29.50
2018-08-06T06:47:34.180Z,29.70
2018-08-06T06:50:02.798Z,30.40
2018-08-06T06:52:31.279Z,30.50
2018-08-06T06:54:59.960Z,29.40
2018-08-06T06:57:28.519Z,29.60
2018-08-06T06:59:57.040Z,29.50
2018-08-06T07:02:25.756Z,29.90
2018-08-06T07:04:55.092Z,30.30
2018-08-06T07:07:23.637Z,30.40
2018-08-06T07:09:52.097Z,30.40
2018-08-06T07:12:20.642Z,30.60
2018-08-06T07:14:49.212Z,30.70
2018-08-06T07:17:17.827Z,30.30
2018-08-06T07:19:46.377Z,30.20
2018-08-06T07:22:14.985Z,30.60
2018-08-06T07:24:43.509Z,29.90
2018-08-06T07:27:12.108Z,30.00
2018-08-06T07:32:07.876Z,29.70
2018-08-06T07:34:36.376Z,30.40
2018-08-06T07:37:05.151Z,30.90
2018-08-06T07:39:33.724Z,30.40
2018-08-06T07:42:02.122Z,31.20
2018-08-06T07:44:30.624Z,31.80
2018-08-06T07:46:59.158Z,32.00
2018-08-06T07:49:28.457Z,31.80
2018-08-06T07:51:57.064Z,31.60
2018-08-06T07:54:25.723Z,31.80
2018-08-06T07:56:54.260Z,32.00
2018-08-06T07:59:23.265Z,31.50
2018-08-06T08:01:51.764Z,31.50
2018-08-06T08:04:20.685Z,30.70
2018-08-06T08:06:49.422Z,30.80
2018-08-06T08:09:17.980Z,30.80
2018-08-06T08:11:46.467Z,30.90
2018-08-06T08:14:15.040Z,31.30
2018-08-06T08:16:43.640Z,31.30
2018-08-06T08:19:12.179Z,31.80
2018-08-06T08:21:40.848Z,32.50
2018-08-06T08:24:09.413Z,33.00
2018-08-06T08:26:38.103Z,33.20
2018-08-06T08:29:06.640Z,33.40
2018-08-06T08:31:35.195Z,33.70
2018-08-06T08:34:03.954Z,32.90
2018-08-06T08:36:32.639Z,34.10
2018-08-06T08:39:01.155Z,34.30
2018-08-06T08:41:29.838Z,34.50
2018-08-06T08:43:58.362Z,34.20
2018-08-06T08:46:26.911Z,33.80
2018-08-06T08:51:23.872Z,34.00
2018-08-06T08:53:52.397Z,34.00
2018-08-06T08:56:21.008Z,34.00
2018-08-06T08:58:49.643Z,33.30
2018-08-06T09:01:18.060Z,33.60
2018-08-06T09:03:46.658Z,33.80
2018-08-06T09:06:15.184Z,34.40
2018-08-06T09:08:43.795Z,33.70
2018-08-06T09:11:12.369Z,33.60
2018-08-06T09:13:40.968Z,33.60
2018-08-06T09:16:09.608Z,33.40
2018-08-06T09:18:38.053Z,34.00
2018-08-06T09:21:06.705Z,33.90
2018-08-06T09:23:35.132Z,34.40
2018-08-06T09:26:03.670Z,34.90
2018-08-06T09:28:32.257Z,35.70
2018-08-06T09:31:00.703Z,34.90
2018-08-06T09:33:29.242Z,34.20
2018-08-06T09:35:57.748Z,34.30
2018-08-06T09:38:26.184Z,34.80
2018-08-06T09:40:54.735Z,33.70
2018-08-06T09:43:23.177Z,34.80
2018-08-06T09:45:51.718Z,35.40
2018-08-06T09:48:20.194Z,34.20
2018-08-06T09:50:48.836Z,34.10
2018-08-06T09:53:17.324Z,34.00
2018-08-06T09:55:45.828Z,34.00
2018-08-06T09:58:14.309Z,34.20
2018-08-06T10:00:48.260Z,35.00
2018-08-06T10:03:16.696Z,34.20
2018-08-06T10:05:45.313Z,34.20
2018-08-06T10:08:13.764Z,34.90
2018-08-06T10:10:42.268Z,34.90
2018-08-06T10:13:10.796Z,34.80
2018-08-06T10:15:39.329Z,35.40
2018-08-06T10:18:07.905Z,34.70
2018-08-06T10:20:36.400Z,34.70
2018-08-06T10:23:04.881Z,34.40
2018-08-06T10:25:33.652Z,34.80
2018-08-06T10:28:02.214Z,35.50
2018-08-06T10:30:30.770Z,36.50
2018-08-06T10:32:59.155Z,37.20
2018-08-06T10:35:27.665Z,36.20
2018-08-06T10:37:56.102Z,37.20
2018-08-06T10:40:24.948Z,37.60
2018-08-06T10:42:53.586Z,37.10
2018-08-06T10:45:23.265Z,37.80
2018-08-06T10:47:52.191Z,38.10
2018-08-06T10:50:21.867Z,38.70
2018-08-06T10:52:50.418Z,38.10
2018-08-06T10:55:18.980Z,38.50
2018-08-06T10:57:47.447Z,38.50
2018-08-06T11:00:18.201Z,38.60
2018-08-06T11:02:46.910Z,38.60
2018-08-06T11:07:44.419Z,39.60
2018-08-06T11:10:17.182Z,39.90
2018-08-06T11:12:45.792Z,38.50
2018-08-06T11:15:21.504Z,38.80
2018-08-06T11:17:50.084Z,39.10
2018-08-06T11:20:19.440Z,39.50
2018-08-06T11:25:17.708Z,40.10
2018-08-06T11:27:46.471Z,40.20
2018-08-06T11:30:17.761Z,39.40
2018-08-06T11:32:46.773Z,39.70
2018-08-06T11:35:15.938Z,39.80
2018-08-06T11:37:44.492Z,40.30
2018-08-06T11:40:14.161Z,40.50
2018-08-06T11:42:43.466Z,40.40
2018-08-06T11:45:14.036Z,40.20
2018-08-06T11:47:42.538Z,40.30
2018-08-06T11:50:11.191Z,40.10
2018-08-06T11:52:39.816Z,40.20
2018-08-06T11:55:08.823Z,40.50
2018-08-06T11:57:37.469Z,40.80
2018-08-06T12:00:10.179Z,41.00
2018-08-06T12:02:38.826Z,41.50
2018-08-06T12:05:07.407Z,42.10
2018-08-06T12:07:36.189Z,42.60
2018-08-06T12:10:07.700Z,43.00
2018-08-06T12:12:36.269Z,43.10
2018-08-06T12:15:05.526Z,43.20
2018-08-06T12:17:33.991Z,42.90
2018-08-06T12:20:02.660Z,42.60
2018-08-06T12:22:31.216Z,42.10
2018-08-06T12:24:59.709Z,42.20
2018-08-06T12:27:28.337Z,42.40
2018-08-06T12:29:56.822Z,42.50
2018-08-06T12:32:25.431Z,42.50
2018-08-06T12:34:53.981Z,42.80
2018-08-06T12:37:23.240Z,43.30
2018-08-06T12:39:52.559Z,43.60
2018-08-06T12:42:21.016Z,43.60
2018-08-06T12:44:49.542Z,43.60
2018-08-06T12:47:18.062Z,44.00
2018-08-06T12:49:46.540Z,43.40
2018-08-06T12:52:15.133Z,42.50
2018-08-06T12:54:43.562Z,42.20
2018-08-06T12:57:12.845Z,42.50
2018-08-06T12:59:42.188Z,42.90
2018-08-06T13:02:10.683Z,43.20
2018-08-06T13:04:39.262Z,43.00
2018-08-06T13:07:07.781Z,42.70
2018-08-06T13:09:36.337Z,42.10
2018-08-06T13:12:04.889Z,41.70
2018-08-06T13:14:33.383Z,41.40
2018-08-06T13:17:01.989Z,41.70
2018-08-06T13:19:30.587Z,41.40
2018-08-06T13:21:59.144Z,41.50
2018-08-06T13:26:55.809Z,40.80
2018-08-06T13:29:24.344Z,41.10
2018-08-06T13:31:52.835Z,41.20
2018-08-06T13:34:21.417Z,41.40
2018-08-06T13:36:49.973Z,41.80
2018-08-06T13:39:18.413Z,41.80
2018-08-06T13:41:47.000Z,41.80
2018-08-06T13:44:15.541Z,41.90
2018-08-06T13:46:44.084Z,41.60
2018-08-06T13:51:40.805Z,41.70
2018-08-06T13:54:09.502Z,41.70
2018-08-06T13:56:38.083Z,41.60
2018-08-06T13:59:06.761Z,41.80
2018-08-06T14:01:35.506Z,42.10
2018-08-06T14:04:04.383Z,42.50
2018-08-06T14:06:32.846Z,42.50
2018-08-06T14:09:01.377Z,42.70
2018-08-06T14:13:58.180Z,42.50
2018-08-06T14:16:26.788Z,42.30
2018-08-06T14:18:55.355Z,42.10
2018-08-06T14:21:23.873Z,41.90
2018-08-06T14:23:52.383Z,41.60
2018-08-06T14:26:20.969Z,41.40
2018-08-06T14:28:49.498Z,41.50
2018-08-06T14:31:18.087Z,41.40
2018-08-06T14:33:46.560Z,41.40
2018-08-06T14:36:15.139Z,41.20
2018-08-06T14:38:43.607Z,41.10
2018-08-06T14:41:12.132Z,41.10
2018-08-06T14:43:40.572Z,41.40
2018-08-06T14:46:09.200Z,41.40
2018-08-06T14:48:37.806Z,41.10
2018-08-06T14:51:06.440Z,40.90
2018-08-06T14:53:34.928Z,40.90
2018-08-06T14:56:03.660Z,40.90
2018-08-06T14:58:32.195Z,40.60
2018-08-06T15:01:00.767Z,40.60
2018-08-06T15:03:29.267Z,40.70
2018-08-06T15:05:57.820Z,41.10
2018-08-06T15:08:26.458Z,41.20
2018-08-06T15:10:55.084Z,41.50
2018-08-06T15:16:02.668Z,41.70
2018-08-06T15:20:59.546Z,41.70
2018-08-06T15:23:27.996Z,41.80
2018-08-06T15:25:56.530Z,41.90
2018-08-06T15:28:25.023Z,42.00
2018-08-06T15:30:53.583Z,41.80
2018-08-06T15:33:22.090Z,42.00
2018-08-06T15:35:50.845Z,41.70
2018-08-06T15:38:19.344Z,41.50
2018-08-06T15:43:16.080Z,41.30
2018-08-06T15:45:44.750Z,40.90
2018-08-06T15:48:13.372Z,40.90
2018-08-06T15:50:41.947Z,40.70
2018-08-06T15:53:10.410Z,40.90
2018-08-06T15:55:39.012Z,40.90
2018-08-06T15:58:07.474Z,41.10
2018-08-06T16:00:36.049Z,40.60
2018-08-06T16:03:04.578Z,40.40
2018-08-06T16:05:33.092Z,40.60
2018-08-06T16:08:01.571Z,40.80
2018-08-06T16:10:30.037Z,41.00
2018-08-06T16:12:58.551Z,41.00
2018-08-06T16:15:27.075Z,41.10
2018-08-06T16:17:55.767Z,41.10
2018-08-06T16:20:24.331Z,41.00
2018-08-06T16:22:52.904Z,40.80
2018-08-06T16:25:21.402Z,40.70
2018-08-06T16:27:49.959Z,40.70
2018-08-06T16:30:20.842Z,40.80
2018-08-06T16:32:49.705Z,40.90
2018-08-06T16:35:19.835Z,40.90
2018-08-06T16:37:48.986Z,40.30
2018-08-06T16:40:23.792Z,39.90
2018-08-06T16:42:52.581Z,39.70
2018-08-06T16:45:21.320Z,39.70
2018-08-06T16:47:49.902Z,39.60
2018-08-06T16:50:18.882Z,39.50
2018-08-06T16:52:47.651Z,39.40
2018-08-06T16:55:16.131Z,39.30
2018-08-06T16:57:44.688Z,39.10
2018-08-06T17:00:16.702Z,38.90
2018-08-06T17:02:45.739Z,38.80
2018-08-06T17:05:14.634Z,38.40
2018-08-06T17:07:44.451Z,38.20
2018-08-06T17:10:15.241Z,37.90
2018-08-06T17:12:44.991Z,37.60
2018-08-06T17:15:15.577Z,37.40
2018-08-06T17:17:44.355Z,37.20
2018-08-06T17:20:15.229Z,37.10
2018-08-06T17:22:45.738Z,36.90
2018-08-06T17:25:14.623Z,36.70
2018-08-06T17:27:43.345Z,36.60
2018-08-06T17:30:12.735Z,36.50
2018-08-06T17:32:41.160Z,36.40
2018-08-06T17:35:11.090Z,36.20
2018-08-06T17:37:39.676Z,36.00
2018-08-06T17:40:12.892Z,35.90
2018-08-06T17:42:44.047Z,35.60
2018-08-06T17:47:42.902Z,34.90
2018-08-06T17:50:13.827Z,34.60
2018-08-06T17:52:42.726Z,34.20
2018-08-06T17:55:11.270Z,34.00
2018-08-06T17:57:39.868Z,33.70
2018-08-06T18:00:09.063Z,33.50
2018-08-06T18:02:38.001Z,33.30
2018-08-06T18:05:08.298Z,33.20
2018-08-06T18:07:36.878Z,33.00
2018-08-06T18:10:06.709Z,32.90
2018-08-06T18:12:35.187Z,32.70
2018-08-06T18:15:03.891Z,32.40
2018-08-06T18:17:32.338Z,32.20
2018-08-06T18:20:00.800Z,32.00
2018-08-06T18:22:29.339Z,31.80
2018-08-06T18:24:58.000Z,31.50
2018-08-06T18:27:26.484Z,31.20
2018-08-06T18:29:55.019Z,30.90
2018-08-06T18:32:23.555Z,30.70
2018-08-06T18:34:52.076Z,30.60
2018-08-06T18:37:20.548Z,30.50
2018-08-06T18:39:49.003Z,30.60
2018-08-06T18:42:17.534Z,30.60
2018-08-06T18:44:46.217Z,30.50
2018-08-06T18:47:14.804Z,30.50
2018-08-06T18:49:43.851Z,30.50
2018-08-06T18:52:12.445Z,30.40
2018-08-06T18:57:09.007Z,30.30
2018-08-06T18:59:37.630Z,30.30
2018-08-06T19:02:06.193Z,30.30
2018-08-06T19:04:34.739Z,30.20
2018-08-06T19:07:03.315Z,30.10
2018-08-06T19:09:31.890Z,30.00
2018-08-06T19:12:05.817Z,29.80
2018-08-06T19:14:34.388Z,29.70
2018-08-06T19:17:03.069Z,29.50
2018-08-06T19:19:31.585Z,29.40
2018-08-06T19:22:00.151Z,29.30
2018-08-06T19:24:33.973Z,29.20
2018-08-06T19:27:02.509Z,29.10
2018-08-06T19:29:30.943Z,29.00
2018-08-06T19:31:59.430Z,28.90
2018-08-06T19:34:27.940Z,28.90
2018-08-06T19:37:01.719Z,28.80
2018-08-06T19:39:30.245Z,28.70
2018-08-06T19:41:59.365Z,28.70
2018-08-06T19:44:27.913Z,28.70
2018-08-06T19:46:56.411Z,28.70
2018-08-06T19:49:30.107Z,28.60
2018-08-06T19:51:58.699Z,28.60
2018-08-06T19:54:27.244Z,28.70
2018-08-06T19:56:55.828Z,28.70
2018-08-06T20:01:52.480Z,28.70
2018-08-06T20:06:49.278Z,28.60
2018-08-06T20:09:17.856Z,28.70
2018-08-06T20:11:46.344Z,28.70
2018-08-06T20:14:14.761Z,28.70
2018-08-06T20:16:43.303Z,28.60
2018-08-06T20:19:11.863Z,28.70
2018-08-06T20:21:40.355Z,28.80
2018-08-06T20:24:08.864Z,28.80
2018-08-06T20:26:37.411Z,28.80
2018-08-06T20:29:06.000Z,28.90
2018-08-06T20:31:34.512Z,29.00
2018-08-06T20:34:03.124Z,29.00
2018-08-06T20:36:31.607Z,29.10
2018-08-06T20:39:00.213Z,29.10
2018-08-06T20:41:28.770Z,28.90
2018-08-06T20:43:57.331Z,28.80
2018-08-06T20:46:25.901Z,28.50
2018-08-06T20:48:54.503Z,28.00
2018-08-06T20:51:23.060Z,27.40
2018-08-06T20:53:52.155Z,26.90
2018-08-06T20:56:21.409Z,26.50
2018-08-06T20:58:50.018Z,26.20
2018-08-06T21:01:18.561Z,25.90
2018-08-06T21:03:47.090Z,25.40
2018-08-06T21:06:16.256Z,25.10
2018-08-06T21:08:44.765Z,24.80
2018-08-06T21:11:13.300Z,24.70
2018-08-06T21:13:42.523Z,24.50
2018-08-06T21:16:11.044Z,24.40
2018-08-06T21:18:39.634Z,24.20
2018-08-06T21:23:36.411Z,24.10
2018-08-06T21:26:05.709Z,24.20
2018-08-06T21:28:34.235Z,24.20
2018-08-06T21:31:02.759Z,24.40
2018-08-06T21:33:31.341Z,24.40
2018-08-06T21:35:59.997Z,24.50
2018-08-06T21:38:28.557Z,24.60
2018-08-06T21:40:57.099Z,24.60
2018-08-06T21:43:25.581Z,24.70
2018-08-06T21:45:54.198Z,24.70
2018-08-06T21:50:50.831Z,24.80
2018-08-06T21:53:20.764Z,24.80
2018-08-06T21:55:49.333Z,24.90
2018-08-06T21:58:17.820Z,24.90
2018-08-06T22:00:46.408Z,25.00
2018-08-06T22:03:16.564Z,25.00
2018-08-06T22:05:45.593Z,25.00
2018-08-06T22:08:14.168Z,25.10
2018-08-06T22:10:42.930Z,25.10
2018-08-06T22:13:11.636Z,25.10
2018-08-06T22:15:40.233Z,25.00
2018-08-06T22:18:10.902Z,25.00
2018-08-06T22:20:39.566Z,25.00
2018-08-06T22:23:08.552Z,24.90
2018-08-06T22:25:37.755Z,24.90
2018-08-06T22:28:07.376Z,24.90
2018-08-06T22:30:35.962Z,24.90
2018-08-06T22:33:04.511Z,24.80
2018-08-06T22:35:33.553Z,24.80
2018-08-06T22:38:02.040Z,24.60
2018-08-06T22:40:30.603Z,24.60
2018-08-06T22:45:27.400Z,24.60
2018-08-06T22:47:55.942Z,24.50
2018-08-06T22:50:24.500Z,24.40
2018-08-06T22:52:52.964Z,24.30
2018-08-06T22:55:21.595Z,24.30
2018-08-06T22:57:50.088Z,24.30
2018-08-06T23:00:18.753Z,24.30
2018-08-06T23:02:47.168Z,24.20
2018-08-06T23:05:16.848Z,24.30
2018-08-06T23:07:45.447Z,24.20
2018-08-06T23:10:15.562Z,24.20
2018-08-06T23:12:44.239Z,24.10
2018-08-06T23:15:14.436Z,24.00
2018-08-06T23:17:43.387Z,23.90
2018-08-06T23:20:12.102Z,23.90
2018-08-06T23:25:08.967Z,23.80
2018-08-06T23:27:38.359Z,23.70
2018-08-06T23:30:09.241Z,23.60
2018-08-06T23:32:37.740Z,23.60
2018-08-06T23:35:07.990Z,23.60
2018-08-06T23:37:36.470Z,23.60
2018-08-06T23:40:05.937Z,23.60
2018-08-06T23:42:34.535Z,23.60
2018-08-06T23:45:03.043Z,23.50
2018-08-06T23:47:31.624Z,23.50
2018-08-06T23:50:00.459Z,23.60
2018-08-06T23:52:29.779Z,23.50
2018-08-06T23:54:58.330Z,23.50
2018-08-06T23:57:26.868Z,23.60
2018-08-06T23:59:56.244Z,23.60
